createdAt,value
2022-10-07T00:01:06.747Z,99.90
2022-10-07T00:03:34.858Z,99.90
2022-10-07T00:06:12.273Z,99.90
2022-10-07T00:08:42.708Z,99.90
2022-10-07T00:11:26.823Z,99.90
2022-10-07T00:13:57.661Z,99.90
2022-10-07T00:16:32.593Z,99.90
2022-10-07T00:19:02.755Z,99.90
2022-10-07T00:21:33.460Z,99.90
2022-10-07T00:24:01.555Z,99.90
2022-10-07T00:26:31.858Z,99.90
2022-10-07T00:28:59.835Z,99.90
2022-10-07T00:31:30.531Z,99.90
2022-10-07T00:33:59.367Z,99.90
2022-10-07T00:36:34.399Z,99.90
2022-10-07T00:39:06.821Z,99.90
2022-10-07T00:41:39.696Z,99.90
2022-10-07T00:44:31.776Z,99.90
2022-10-07T00:47:01.023Z,99.90
2022-10-07T00:49:29.585Z,99.90
2022-10-07T00:54:25.796Z,99.90
2022-10-07T00:56:53.420Z,99.90
2022-10-07T00:59:21.741Z,99.90
2022-10-07T01:01:49.017Z,99.90
2022-10-07T01:04:17.352Z,99.90
2022-10-07T01:06:45.874Z,99.90
2022-10-07T01:09:14.546Z,99.90
2022-10-07T01:12:07.865Z,99.90
2022-10-07T01:14:51.214Z,99.90
2022-10-07T01:17:51.535Z,99.90
2022-10-07T01:20:48.888Z,99.90
2022-10-07T01:23:46.143Z,99.90
2022-10-07T01:26:51.424Z,99.90
2022-10-07T01:29:42.261Z,99.90
2022-10-07T01:32:25.016Z,99.90
2022-10-07T01:34:55.487Z,99.90
2022-10-07T01:37:28.953Z,99.90
2022-10-07T01:40:03.219Z,99.90
2022-10-07T01:42:30.843Z,99.90
2022-10-07T01:45:00.630Z,99.90
2022-10-07T01:47:28.985Z,99.90
2022-10-07T01:49:56.342Z,99.90
2022-10-07T01:53:15.473Z,99.90
2022-10-07T01:56:25.042Z,99.90
2022-10-07T02:01:56.195Z,99.90
2022-10-07T02:04:59.212Z,99.90
2022-10-07T02:07:38.195Z,99.90
2022-10-07T02:10:16.882Z,99.90
2022-10-07T02:12:57.603Z,99.90
2022-10-07T02:15:44.694Z,99.90
2022-10-07T02:18:18.302Z,99.90
2022-10-07T02:20:51.708Z,99.90
2022-10-07T02:23:21.790Z,99.90
2022-10-07T02:25:52.659Z,99.90
2022-10-07T02:28:24.660Z,99.90
2022-10-07T02:31:00.047Z,99.90
2022-10-07T02:33:31.132Z,99.90
2022-10-07T02:36:03.832Z,99.90
2022-10-07T02:38:31.413Z,99.90
2022-10-07T02:41:52.317Z,99.90
2022-10-07T02:44:47.252Z,99.90
2022-10-07T02:47:22.130Z,99.90
2022-10-07T02:49:55.349Z,99.90
2022-10-07T02:52:24.509Z,99.90
2022-10-07T02:55:09.972Z,99.90
2022-10-07T02:57:47.506Z,99.90
2022-10-07T03:00:15.947Z,99.90
2022-10-07T03:02:54.614Z,99.90
2022-10-07T03:05:22.667Z,99.90
2022-10-07T03:07:58.833Z,99.90
2022-10-07T03:10:27.185Z,99.90
2022-10-07T03:12:54.940Z,99.90
2022-10-07T03:15:26.111Z,99.90
2022-10-07T03:17:53.230Z,99.90
2022-10-07T03:20:20.384Z,99.90
2022-10-07T03:22:47.537Z,99.90
2022-10-07T03:25:15.390Z,99.90
2022-10-07T03:27:43.281Z,99.90
2022-10-07T03:30:11.779Z,99.90
2022-10-07T03:32:40.829Z,99.90
2022-10-07T03:35:08.686Z,99.90
2022-10-07T03:37:36.504Z,99.90
2022-10-07T03:40:04.682Z,99.90
2022-10-07T03:42:31.802Z,99.90
2022-10-07T03:45:00.178Z,99.90
2022-10-07T03:47:27.794Z,99.90
2022-10-07T03:49:55.354Z,99.90
2022-10-07T03:52:22.561Z,99.90
2022-10-07T03:54:49.902Z,99.90
2022-10-07T03:57:35.245Z,99.90
2022-10-07T04:00:02.446Z,99.90
2022-10-07T04:02:29.719Z,99.90
2022-10-07T04:04:57.269Z,99.90
2022-10-07T04:07:24.417Z,99.90
2022-10-07T04:09:51.546Z,99.90
2022-10-07T04:14:46.453Z,99.90
2022-10-07T04:22:09.048Z,99.90
2022-10-07T04:24:36.914Z,99.90
2022-10-07T04:29:38.983Z,99.90
2022-10-07T04:32:08.053Z,99.90
2022-10-07T04:34:36.351Z,99.90
2022-10-07T04:39:56.086Z,99.90
2022-10-07T04:42:38.474Z,99.90
2022-10-07T04:45:06.750Z,99.90
2022-10-07T04:47:35.905Z,99.90
2022-10-07T04:50:04.014Z,99.90
2022-10-07T04:52:31.157Z,99.90
2022-10-07T04:54:58.430Z,99.90
2022-10-07T04:57:25.482Z,99.90
2022-10-07T05:02:20.794Z,99.90
2022-10-07T05:04:48.081Z,99.90
2022-10-07T05:07:15.341Z,99.90
2022-10-07T05:09:42.729Z,99.90
2022-10-07T05:12:10.446Z,99.90
2022-10-07T05:14:37.808Z,99.90
2022-10-07T05:17:04.950Z,99.90
2022-10-07T05:19:36.026Z,99.90
2022-10-07T05:22:03.656Z,99.90
2022-10-07T05:24:31.110Z,99.90
2022-10-07T05:27:00.819Z,99.90
2022-10-07T05:29:28.187Z,99.90
2022-10-07T05:31:55.680Z,99.90
2022-10-07T05:34:23.119Z,99.90
2022-10-07T05:36:50.274Z,99.90
2022-10-07T05:39:17.503Z,99.90
2022-10-07T05:41:46.118Z,99.90
2022-10-07T05:44:13.447Z,99.90
2022-10-07T05:46:40.556Z,99.90
2022-10-07T05:49:07.956Z,99.90
2022-10-07T05:51:35.098Z,99.90
2022-10-07T05:56:29.997Z,99.90
2022-10-07T05:58:57.406Z,99.90
2022-10-07T06:01:25.294Z,99.90
2022-10-07T06:03:56.895Z,99.90
2022-10-07T06:06:25.480Z,99.90
2022-10-07T06:08:53.426Z,99.90
2022-10-07T06:11:39.807Z,99.90
2022-10-07T06:14:07.422Z,99.90
2022-10-07T06:19:02.537Z,99.90
2022-10-07T06:21:29.823Z,99.90
2022-10-07T06:23:58.612Z,99.90
2022-10-07T06:26:26.424Z,99.90
2022-10-07T06:28:53.473Z,99.90
2022-10-07T06:31:25.935Z,99.90
2022-10-07T06:33:54.593Z,99.90
2022-10-07T06:36:21.873Z,99.90
2022-10-07T06:38:51.673Z,99.90
2022-10-07T06:41:19.723Z,99.90
2022-10-07T06:43:47.468Z,99.90
2022-10-07T06:46:18.224Z,99.90
2022-10-07T06:48:46.829Z,99.90
2022-10-07T06:51:17.773Z,99.90
2022-10-07T06:56:14.715Z,99.90
2022-10-07T06:58:43.196Z,99.90
2022-10-07T07:01:12.513Z,99.90
2022-10-07T07:03:40.632Z,99.90
2022-10-07T07:06:09.197Z,99.90
2022-10-07T07:08:38.824Z,99.90
2022-10-07T07:11:32.607Z,99.90
2022-10-07T07:16:28.273Z,99.90
2022-10-07T07:19:04.251Z,99.90
2022-10-07T07:21:33.547Z,99.90
2022-10-07T07:24:01.541Z,99.90
2022-10-07T07:26:29.946Z,99.90
2022-10-07T07:29:03.954Z,99.90
2022-10-07T07:31:34.825Z,99.90
2022-10-07T07:34:07.259Z,99.90
2022-10-07T07:36:36.589Z,99.90
2022-10-07T07:39:09.788Z,99.90
2022-10-07T07:41:41.425Z,99.90
2022-10-07T07:44:12.695Z,99.90
2022-10-07T07:46:45.178Z,99.90
2022-10-07T07:49:13.546Z,99.90
2022-10-07T07:51:45.101Z,99.90
2022-10-07T07:54:13.071Z,99.90
2022-10-07T07:56:41.184Z,99.90
2022-10-07T08:01:36.388Z,99.90
2022-10-07T08:04:06.373Z,99.90
2022-10-07T08:09:02.265Z,99.90
2022-10-07T08:11:32.856Z,99.90
2022-10-07T08:14:00.442Z,99.90
2022-10-07T08:16:30.237Z,99.90
2022-10-07T08:18:59.386Z,99.90
2022-10-07T08:21:32.999Z,99.90
2022-10-07T08:24:04.206Z,99.90
2022-10-07T08:26:34.743Z,99.90
2022-10-07T08:29:02.216Z,99.90
2022-10-07T08:31:30.132Z,99.90
2022-10-07T08:34:00.287Z,99.90
2022-10-07T08:36:30.319Z,99.90
2022-10-07T08:38:57.630Z,99.90
2022-10-07T08:41:58.553Z,99.90
2022-10-07T08:44:37.152Z,99.90
2022-10-07T08:47:34.765Z,98.40
2022-10-07T08:50:19.166Z,97.70
2022-10-07T08:53:00.121Z,97.70
2022-10-07T08:56:01.112Z,97.90
2022-10-07T08:58:52.097Z,97.60
2022-10-07T09:01:32.240Z,95.40
2022-10-07T09:04:33.247Z,94.90
2022-10-07T09:07:31.544Z,95.00
2022-10-07T09:10:10.370Z,95.50
2022-10-07T09:12:50.494Z,93.30
2022-10-07T09:15:49.969Z,92.50
2022-10-07T09:18:43.689Z,92.90
2022-10-07T09:21:23.546Z,90.70
2022-10-07T09:24:10.791Z,90.00
2022-10-07T09:26:38.828Z,91.10
2022-10-07T09:29:05.990Z,90.70
2022-10-07T09:31:33.719Z,90.20
2022-10-07T09:34:01.228Z,90.90
2022-10-07T09:38:56.058Z,91.30
2022-10-07T09:41:38.733Z,90.50
2022-10-07T09:44:16.437Z,90.00
2022-10-07T09:47:14.010Z,82.70
2022-10-07T09:49:49.241Z,82.40
2022-10-07T09:52:29.172Z,83.50
2022-10-07T09:55:22.477Z,84.00
2022-10-07T09:58:24.428Z,84.30
2022-10-07T10:01:02.823Z,88.90
2022-10-07T10:03:39.326Z,87.60
2022-10-07T10:06:10.744Z,86.60
2022-10-07T10:08:44.093Z,86.10
2022-10-07T10:11:20.021Z,83.00
2022-10-07T10:13:50.754Z,83.50
2022-10-07T10:16:36.309Z,82.80
2022-10-07T10:19:26.960Z,82.60
2022-10-07T10:21:57.146Z,84.10
2022-10-07T10:24:46.001Z,86.40
2022-10-07T10:27:29.557Z,86.60
2022-10-07T10:30:04.596Z,83.20
2022-10-07T10:32:59.774Z,82.60
2022-10-07T10:35:34.672Z,81.50
2022-10-07T10:38:27.715Z,83.50
2022-10-07T10:41:46.873Z,82.10
2022-10-07T10:44:32.369Z,81.00
2022-10-07T10:47:27.171Z,80.60
2022-10-07T10:50:22.305Z,79.10
2022-10-07T10:53:53.022Z,81.00
2022-10-07T10:56:24.125Z,81.60
2022-10-07T10:59:21.485Z,79.20
2022-10-07T11:02:18.238Z,80.80
2022-10-07T11:04:58.317Z,82.10
2022-10-07T11:07:36.870Z,81.50
2022-10-07T11:10:27.782Z,81.80
2022-10-07T11:13:27.483Z,83.50
2022-10-07T11:16:04.361Z,84.50
2022-10-07T11:18:43.382Z,84.90
2022-10-07T11:21:23.633Z,81.70
2022-10-07T11:24:03.838Z,83.70
2022-10-07T11:26:42.294Z,81.80
2022-10-07T11:30:08.731Z,81.40
2022-10-07T11:33:00.773Z,84.00
2022-10-07T11:35:44.111Z,85.80
2022-10-07T11:38:12.427Z,86.40
2022-10-07T11:40:53.379Z,83.90
2022-10-07T11:43:33.335Z,84.50
2022-10-07T11:46:34.223Z,84.20
2022-10-07T11:49:15.828Z,77.60
2022-10-07T11:52:01.824Z,78.70
2022-10-07T11:54:46.771Z,79.90
2022-10-07T11:57:31.352Z,77.90
2022-10-07T12:00:04.340Z,78.00
2022-10-07T12:02:31.730Z,79.30
2022-10-07T12:05:01.398Z,79.30
2022-10-07T12:07:59.907Z,79.80
2022-10-07T12:10:35.765Z,76.70
2022-10-07T12:13:09.347Z,77.00
2022-10-07T12:15:42.731Z,78.20
2022-10-07T12:18:10.938Z,77.60
2022-10-07T12:20:59.271Z,82.60
2022-10-07T12:23:26.515Z,83.80
2022-10-07T12:26:03.708Z,85.10
2022-10-07T12:28:43.486Z,88.20
2022-10-07T12:31:22.924Z,90.40
2022-10-07T12:34:05.476Z,92.10
2022-10-07T12:39:01.006Z,91.00
2022-10-07T12:41:40.120Z,92.30
2022-10-07T12:44:39.341Z,91.80
2022-10-07T12:47:18.703Z,93.00
2022-10-07T12:49:51.880Z,93.90
2022-10-07T12:52:27.405Z,93.80
2022-10-07T12:55:09.615Z,92.80
2022-10-07T12:57:49.864Z,92.70
2022-10-07T13:00:30.091Z,92.30
2022-10-07T13:03:25.805Z,92.30
2022-10-07T13:06:23.601Z,93.70
2022-10-07T13:09:17.822Z,91.40
2022-10-07T13:12:31.305Z,93.60
2022-10-07T13:15:35.394Z,93.20
2022-10-07T13:18:17.613Z,93.90
2022-10-07T13:21:22.236Z,92.50
2022-10-07T13:23:55.812Z,93.60
2022-10-07T13:26:25.950Z,94.10
2022-10-07T13:28:58.430Z,95.00
2022-10-07T13:31:30.972Z,94.20
2022-10-07T13:34:15.944Z,94.10
2022-10-07T13:36:43.884Z,94.80
2022-10-07T13:39:21.528Z,95.90
2022-10-07T13:41:55.723Z,96.40
2022-10-07T13:44:27.747Z,96.30
2022-10-07T13:47:06.158Z,96.00
2022-10-07T13:49:47.227Z,94.50
2022-10-07T13:52:34.973Z,95.80
2022-10-07T13:55:02.314Z,98.10
2022-10-07T13:57:31.479Z,97.90
2022-10-07T14:00:00.173Z,97.10
2022-10-07T14:05:19.542Z,96.60
2022-10-07T14:07:46.761Z,97.40
2022-10-07T14:10:14.110Z,97.70
2022-10-07T14:12:51.288Z,98.40
2022-10-07T14:15:24.636Z,98.50
2022-10-07T14:18:06.475Z,98.40
2022-10-07T14:20:41.031Z,99.60
2022-10-07T14:23:28.719Z,99.60
2022-10-07T14:26:02.323Z,99.30
2022-10-07T14:28:33.589Z,99.90
2022-10-07T14:31:25.676Z,99.90
2022-10-07T14:34:23.717Z,99.90
2022-10-07T14:37:11.292Z,99.90
2022-10-07T14:39:47.767Z,99.90
2022-10-07T14:42:20.438Z,99.90
2022-10-07T14:44:48.490Z,99.90
2022-10-07T14:47:21.278Z,99.90
2022-10-07T14:49:49.665Z,99.90
2022-10-07T14:52:31.661Z,99.90
2022-10-07T14:55:02.688Z,99.90
2022-10-07T14:57:30.326Z,99.90
2022-10-07T14:59:57.496Z,99.90
2022-10-07T15:02:24.825Z,99.90
2022-10-07T15:04:52.181Z,99.90
2022-10-07T15:07:19.584Z,99.90
2022-10-07T15:09:46.988Z,99.90
2022-10-07T15:12:16.806Z,99.90
2022-10-07T15:14:44.009Z,99.90
2022-10-07T15:17:12.763Z,99.90
2022-10-07T15:19:40.010Z,99.90
2022-10-07T15:22:07.393Z,99.90
2022-10-07T15:24:35.080Z,99.90
2022-10-07T15:27:02.616Z,99.90
2022-10-07T15:29:30.110Z,99.90
2022-10-07T15:31:57.236Z,99.90
2022-10-07T15:34:25.943Z,99.90
2022-10-07T15:36:53.025Z,99.90
2022-10-07T15:39:20.737Z,99.90
2022-10-07T15:41:48.585Z,99.90
2022-10-07T15:44:20.367Z,99.90
2022-10-07T15:46:52.801Z,99.90
2022-10-07T15:49:20.880Z,99.90
2022-10-07T15:51:48.658Z,99.90
2022-10-07T15:54:16.377Z,99.90
2022-10-07T15:56:45.271Z,99.90
2022-10-07T15:59:12.456Z,99.90
2022-10-07T16:01:39.785Z,99.90
2022-10-07T16:04:13.272Z,99.90
2022-10-07T16:06:40.776Z,99.90
2022-10-07T16:09:08.216Z,99.90
2022-10-07T16:11:35.378Z,99.90
2022-10-07T16:14:03.886Z,99.90
2022-10-07T16:16:32.585Z,99.90
2022-10-07T16:19:01.203Z,99.90
2022-10-07T16:21:37.937Z,99.90
2022-10-07T16:24:16.431Z,99.90
2022-10-07T16:26:45.076Z,99.90
2022-10-07T16:29:40.015Z,99.90
2022-10-07T16:32:11.755Z,99.90
2022-10-07T16:34:43.584Z,99.90
2022-10-07T16:37:12.223Z,99.90
2022-10-07T16:39:39.501Z,99.90
2022-10-07T16:44:34.573Z,99.90
2022-10-07T16:47:02.090Z,99.90
2022-10-07T16:49:30.457Z,99.90
2022-10-07T16:51:58.653Z,99.90
2022-10-07T16:54:28.855Z,99.90
2022-10-07T16:56:58.509Z,99.90
2022-10-07T16:59:26.306Z,99.90
2022-10-07T17:01:57.150Z,99.90
2022-10-07T17:04:25.716Z,99.90
2022-10-07T17:06:53.737Z,99.90
2022-10-07T17:11:52.697Z,99.90
2022-10-07T17:14:21.922Z,99.90
2022-10-07T17:16:58.642Z,99.90
2022-10-07T17:19:28.453Z,99.90
2022-10-07T17:21:58.574Z,99.90
2022-10-07T17:24:25.907Z,99.90
2022-10-07T17:26:53.761Z,99.90
2022-10-07T17:29:24.498Z,99.90
2022-10-07T17:31:52.206Z,99.90
2022-10-07T17:34:21.677Z,99.90
2022-10-07T17:36:50.343Z,99.90
2022-10-07T17:39:19.705Z,99.90
2022-10-07T17:41:48.186Z,99.90
2022-10-07T17:46:43.345Z,99.90
2022-10-07T17:49:13.550Z,99.90
2022-10-07T17:51:43.415Z,99.90
2022-10-07T17:54:13.850Z,99.90
2022-10-07T17:56:46.145Z,99.90
2022-10-07T17:59:14.482Z,99.90
2022-10-07T18:01:42.680Z,99.90
2022-10-07T18:04:22.428Z,99.90
2022-10-07T18:06:51.963Z,99.90
2022-10-07T18:09:19.562Z,99.90
2022-10-07T18:12:05.494Z,99.90
2022-10-07T18:14:54.072Z,99.90
2022-10-07T18:19:50.163Z,99.90
2022-10-07T18:22:17.511Z,99.90
2022-10-07T18:24:46.159Z,99.90
2022-10-07T18:27:14.226Z,99.90
2022-10-07T18:32:11.126Z,99.90
2022-10-07T18:34:38.624Z,99.90
2022-10-07T18:37:06.425Z,99.90
2022-10-07T18:39:34.089Z,99.90
2022-10-07T18:42:01.275Z,99.90
2022-10-07T18:44:29.318Z,99.90
2022-10-07T18:46:56.979Z,99.90
2022-10-07T18:49:24.921Z,99.90
2022-10-07T18:51:52.379Z,99.90
2022-10-07T18:54:21.324Z,99.90
2022-10-07T18:56:51.108Z,99.90
2022-10-07T18:59:20.030Z,99.90
2022-10-07T19:01:50.810Z,99.90
2022-10-07T19:06:48.881Z,99.90
2022-10-07T19:09:20.855Z,99.90
2022-10-07T19:11:48.842Z,99.90
2022-10-07T19:14:16.697Z,99.90
2022-10-07T19:17:03.880Z,99.90
2022-10-07T19:19:32.658Z,99.90
2022-10-07T19:21:59.998Z,99.90
2022-10-07T19:24:45.981Z,99.90
2022-10-07T19:29:41.723Z,99.90
2022-10-07T19:32:09.113Z,99.90
2022-10-07T19:34:36.840Z,99.90
2022-10-07T19:37:04.553Z,99.90
2022-10-07T19:39:31.748Z,99.90
2022-10-07T19:44:26.817Z,99.90
2022-10-07T19:51:49.950Z,99.90
2022-10-07T19:54:17.255Z,99.90
2022-10-07T19:56:45.358Z,99.90
2022-10-07T19:59:14.956Z,99.90
2022-10-07T20:01:47.616Z,99.90
2022-10-07T20:04:19.035Z,99.90
2022-10-07T20:09:18.811Z,99.90
2022-10-07T20:11:46.956Z,99.90
2022-10-07T20:14:16.266Z,99.90
2022-10-07T20:16:44.241Z,99.90
2022-10-07T20:19:18.767Z,99.90
2022-10-07T20:21:46.964Z,99.90
2022-10-07T20:24:16.599Z,99.90
2022-10-07T20:26:45.085Z,99.90
2022-10-07T20:29:15.408Z,99.90
2022-10-07T20:31:44.099Z,99.90
2022-10-07T20:34:16.265Z,99.90
2022-10-07T20:36:44.042Z,99.90
2022-10-07T20:39:39.534Z,99.90
2022-10-07T20:42:22.101Z,99.90
2022-10-07T20:44:51.063Z,99.90
2022-10-07T20:47:20.323Z,99.90
2022-10-07T20:49:48.912Z,99.90
2022-10-07T20:52:20.855Z,99.90
2022-10-07T20:57:23.040Z,99.90
2022-10-07T20:59:51.616Z,99.90
2022-10-07T21:02:21.652Z,99.90
2022-10-07T21:04:49.055Z,99.90
2022-10-07T21:07:18.663Z,99.90
2022-10-07T21:09:47.192Z,99.90
2022-10-07T21:12:18.151Z,99.90
2022-10-07T21:17:15.955Z,99.90
2022-10-07T21:19:43.414Z,99.90
2022-10-07T21:22:10.677Z,99.90
2022-10-07T21:24:38.294Z,99.90
2022-10-07T21:27:08.244Z,99.90
2022-10-07T21:32:09.991Z,99.90
2022-10-07T21:34:38.259Z,99.90
2022-10-07T21:37:05.803Z,99.90
2022-10-07T21:39:33.029Z,99.90
2022-10-07T21:44:29.039Z,99.90
2022-10-07T21:46:59.900Z,99.90
2022-10-07T21:49:27.248Z,99.90
2022-10-07T21:51:54.467Z,99.90
2022-10-07T21:54:21.713Z,99.90
2022-10-07T21:56:48.903Z,99.90
2022-10-07T21:59:16.562Z,99.90
2022-10-07T22:01:43.992Z,99.90
2022-10-07T22:04:17.703Z,99.90
2022-10-07T22:07:04.675Z,99.90
2022-10-07T22:09:32.228Z,99.90
2022-10-07T22:11:59.730Z,99.90
2022-10-07T22:14:27.801Z,99.90
2022-10-07T22:16:55.111Z,99.90
2022-10-07T22:19:23.929Z,99.90
2022-10-07T22:21:51.667Z,99.90
2022-10-07T22:26:48.118Z,99.90
2022-10-07T22:29:18.025Z,99.90
2022-10-07T22:31:45.763Z,99.90
2022-10-07T22:37:01.656Z,99.90
2022-10-07T22:39:29.567Z,99.90
2022-10-07T22:41:59.959Z,99.90
2022-10-07T22:44:28.315Z,99.90
2022-10-07T22:46:57.160Z,99.90
2022-10-07T22:49:28.754Z,99.90
2022-10-07T22:51:58.370Z,99.90
2022-10-07T22:54:26.348Z,99.90
2022-10-07T22:56:53.679Z,99.90
2022-10-07T23:01:48.540Z,99.90
2022-10-07T23:04:15.841Z,99.90
2022-10-07T23:06:43.043Z,99.90
2022-10-07T23:09:10.432Z,99.90
2022-10-07T23:11:37.593Z,99.90
2022-10-07T23:14:05.879Z,99.90
2022-10-07T23:16:34.234Z,99.90
2022-10-07T23:19:01.437Z,99.90
2022-10-07T23:21:34.298Z,99.90
2022-10-07T23:24:07.457Z,99.90
2022-10-07T23:29:07.565Z,99.90
2022-10-07T23:31:34.953Z,99.90
2022-10-07T23:34:03.258Z,99.90
2022-10-07T23:36:32.394Z,99.90
2022-10-07T23:39:01.135Z,99.90
2022-10-07T23:41:30.793Z,99.90
2022-10-07T23:44:02.262Z,99.90
2022-10-07T23:46:33.264Z,99.90
2022-10-07T23:49:01.350Z,99.90
2022-10-07T23:51:29.765Z,99.90
2022-10-07T23:53:57.882Z,99.90
2022-10-07T23:56:25.737Z,99.90
2022-10-07T23:58:52.954Z,99.90
